Terminal Aerodrome Forecast
Issued by NWS Wilmington, OH

Current Version | Previous Version | Text Only | Print | Product List | Glossary Off
Versions: 1 2 3 4 5 6 7 8 9 10 11 12 13 14 15 16 17 18 19 20 21 22 23 24 25 26 27 28 29 30 31 32 33 34

000
FTUS41 KILN 281137
TAFCVG
TAF
KCVG 281137Z 2812/2918 VRB04KT 4SM -SHRA BR VCTS BKN025CB OVC070
      TEMPO 2812/2813 2SM -TSRA BR
     FM281300 22004KT P6SM -RA VCTS BKN035CB OVC070
     FM281400 VRB04KT 4SM -SHRA BR VCTS BKN035CB OVC070
      TEMPO 2814/2816 2SM -TSRA BR OVC025CB
     FM281600 22004KT P6SM VCTS BKN040CB BKN150
     FM290100 VRB03KT P6SM SCT040 BKN150
     FM290800 VRB03KT 5SM BR BKN150
     FM291200 22004KT P6SM BKN150=

USA.gov is the U.S. government's official web portal to all federal, state and local government web resources and services.